Time;durP1;ratioP1;P1;durP2;ratioP2;P2;SDS_P1;SDS_P2;PMS_P1;PMS_P2;Temp;Humidity;BMP_temperature;BMP_pressure;BME280_temperature;BME280_humidity;BME280_pressure;Samples;Min_cycle;Max_cycle;Signal;HPM_P1;HPM_P2
2022/02/08 00:00:09;;;;;;;3.67;1.90;;;1.40;99.90;;;;;;4998500;28;20204;-79
2022/02/08 00:02:39;;;;;;;7.67;2.93;;;1.30;99.90;;;;;;4980917;28;20200;-80
2022/02/08 00:05:07;;;;;;;5.57;1.93;;;1.30;99.90;;;;;;4997093;28;20180;-77
2022/02/08 00:07:34;;;;;;;5.53;2.47;;;1.30;99.90;;;;;;4997429;28;20201;-76
2022/02/08 00:09:59;;;;;;;6.20;2.27;;;1.30;99.90;;;;;;4998715;28;20223;-78
2022/02/08 00:12:25;;;;;;;3.00;2.03;;;1.40;99.90;;;;;;4999610;28;20663;-78
2022/02/08 00:14:52;;;;;;;6.33;2.40;;;1.40;99.90;;;;;;4998360;28;20180;-79
2022/02/08 00:17:18;;;;;;;8.07;2.30;;;1.50;99.90;;;;;;4998540;28;20766;-77
2022/02/08 00:19:43;;;;;;;6.87;2.67;;;1.50;99.90;;;;;;4998181;28;20232;-78
2022/02/08 00:22:09;;;;;;;8.00;2.30;;;1.60;99.90;;;;;;5003178;28;20211;-77
2022/02/08 00:24:34;;;;;;;6.53;2.70;;;1.70;99.90;;;;;;4991474;28;20185;-76
2022/02/08 00:27:01;;;;;;;4.77;2.67;;;1.70;99.90;;;;;;5000415;28;20185;-78
2022/02/08 00:29:26;;;;;;;7.80;2.57;;;1.70;99.90;;;;;;4981501;28;20188;-80
2022/02/08 00:31:52;;;;;;;4.67;2.30;;;1.60;99.90;;;;;;4978880;28;20199;-81
2022/02/08 00:34:17;;;;;;;3.50;1.90;;;1.60;99.90;;;;;;4998415;28;20203;-79
2022/02/08 00:36:44;;;;;;;5.60;1.80;;;1.60;99.90;;;;;;4981290;28;20184;-79
2022/02/08 00:39:10;;;;;;;6.10;2.20;;;1.60;99.90;;;;;;4981401;28;20243;-77
2022/02/08 00:41:37;;;;;;;4.67;1.80;;;1.50;99.90;;;;;;4981942;28;20554;-79
2022/02/08 00:44:09;;;;;;;5.90;2.20;;;1.50;99.90;;;;;;4996759;28;20203;-80
2022/02/08 00:46:56;;;;;;;4.53;1.77;;;1.50;99.90;;;;;;4997083;28;20263;-78
2022/02/08 00:49:29;;;;;;;6.40;2.43;;;1.50;99.90;;;;;;4997559;28;20188;-80
2022/02/08 00:52:04;;;;;;;2.87;1.70;;;1.60;99.90;;;;;;4997545;28;20266;-79
2022/02/08 00:54:29;;;;;;;5.60;1.90;;;1.60;99.90;;;;;;4995148;28;21256;-76
2022/02/08 00:56:55;;;;;;;5.43;1.70;;;1.60;99.90;;;;;;4988227;28;20208;-77
2022/02/08 00:59:21;;;;;;;3.87;1.67;;;1.80;99.90;;;;;;4967494;28;20690;-77
2022/02/08 01:01:46;;;;;;;4.23;1.47;;;1.80;99.90;;;;;;4983623;28;20274;-78
2022/02/08 01:04:12;;;;;;;5.93;1.20;;;1.90;99.90;;;;;;4984579;28;20184;-76
2022/02/08 01:06:40;;;;;;;2.80;1.13;;;2.00;99.90;;;;;;4977568;28;20228;-78
2022/02/08 01:09:13;;;;;;;4.40;1.10;;;2.00;99.90;;;;;;4994770;28;20230;-77
2022/02/08 01:11:42;;;;;;;4.33;0.90;;;2.10;99.90;;;;;;4995865;28;20722;-78
2022/02/08 01:14:08;;;;;;;4.23;1.10;;;2.30;99.90;;;;;;4977891;28;20950;-78
2022/02/08 01:16:33;;;;;;;6.47;1.27;;;2.40;99.90;;;;;;4995307;28;20274;-77
2022/02/08 01:19:00;;;;;;;2.20;0.80;;;2.40;99.90;;;;;;4978125;28;20272;-76
2022/02/08 01:21:26;;;;;;;4.07;1.30;;;2.60;99.90;;;;;;4994341;28;20215;-76
2022/02/08 01:23:52;;;;;;;3.43;1.20;;;2.50;99.90;;;;;;4980782;28;20456;-80
2022/02/08 01:26:19;;;;;;;5.27;1.30;;;2.50;99.90;;;;;;4989778;28;20188;-76
2022/02/08 01:29:06;;;;;;;5.50;1.43;;;2.40;99.90;;;;;;4991019;28;20219;-75
2022/02/08 01:31:37;;;;;;;2.80;1.20;;;2.50;99.90;;;;;;5007670;28;20181;-76
2022/02/08 01:42:21;;;;;;;5.30;1.30;;;2.80;99.90;;;;;;5008118;28;20211;-75
2022/02/08 01:47:41;;;;;;;4.53;1.13;;;3.00;99.90;;;;;;5008688;28;20216;-77
2022/02/08 01:50:10;;;;;;;4.70;1.33;;;3.10;99.90;;;;;;4991214;28;20192;-75
2022/02/08 01:52:38;;;;;;;5.70;1.50;;;3.20;99.90;;;;;;5008095;28;20247;-78
2022/02/08 01:55:05;;;;;;;3.90;1.20;;;3.10;99.90;;;;;;4999184;28;20183;-72
2022/02/08 01:57:30;;;;;;;3.13;1.20;;;3.10;99.90;;;;;;4982721;28;20196;-78
2022/02/08 01:59:56;;;;;;;7.83;1.80;;;3.10;99.90;;;;;;5000497;28;20208;-81
2022/02/08 02:02:22;;;;;;;4.70;1.90;;;3.20;99.90;;;;;;4983689;28;20198;-79
2022/02/08 02:04:47;;;;;;;4.80;1.60;;;3.20;99.90;;;;;;4982079;28;20211;-80
2022/02/08 02:07:15;;;;;;;2.63;1.70;;;3.30;99.90;;;;;;4999706;28;20219;-78
2022/02/08 02:09:45;;;;;;;6.40;2.30;;;3.30;99.90;;;;;;4999755;28;20177;-79
2022/02/08 02:12:10;;;;;;;5.87;2.37;;;3.30;99.90;;;;;;4999875;28;20195;-80
2022/02/08 02:14:41;;;;;;;3.83;2.03;;;3.30;99.90;;;;;;4982411;28;20185;-79
2022/02/08 02:17:09;;;;;;;5.73;2.20;;;3.30;99.90;;;;;;5000084;28;20208;-78
2022/02/08 02:19:35;;;;;;;6.37;2.63;;;3.40;99.90;;;;;;4997994;28;20208;-77
2022/02/08 02:22:02;;;;;;;10.00;2.80;;;3.40;99.90;;;;;;4982499;28;20552;-80
2022/02/08 02:24:28;;;;;;;5.30;2.40;;;3.50;99.90;;;;;;4998035;28;20587;-77
2022/02/08 02:26:57;;;;;;;6.63;2.73;;;3.60;99.90;;;;;;4998884;28;20184;-81
2022/02/08 02:29:23;;;;;;;5.70;3.00;;;3.50;99.90;;;;;;4981345;28;20227;-79
2022/02/08 02:31:49;;;;;;;8.10;3.00;;;3.50;99.90;;;;;;4998647;28;20190;-79
2022/02/08 02:34:17;;;;;;;4.73;2.73;;;3.50;99.90;;;;;;4998995;28;20188;-77
2022/02/08 02:36:43;;;;;;;5.53;3.00;;;3.60;99.90;;;;;;4980639;28;20184;-79
2022/02/08 02:39:10;;;;;;;4.77;2.70;;;3.60;99.90;;;;;;4999111;28;20212;-78
2022/02/08 02:41:37;;;;;;;5.50;3.00;;;3.70;99.90;;;;;;4981473;28;20185;-79
2022/02/08 02:44:08;;;;;;;6.77;3.47;;;3.80;99.90;;;;;;4982111;28;20198;-79
2022/02/08 02:46:34;;;;;;;8.23;3.20;;;3.80;99.90;;;;;;4981365;28;20200;-79
2022/02/08 02:49:00;;;;;;;6.17;3.00;;;3.80;99.90;;;;;;4998331;28;20226;-77
2022/02/08 02:51:26;;;;;;;5.13;3.13;;;3.80;99.90;;;;;;4997940;28;20734;-78
2022/02/08 02:53:52;;;;;;;7.53;3.53;;;4.00;99.90;;;;;;4998174;28;20191;-79
2022/02/08 02:56:18;;;;;;;6.77;3.53;;;4.00;99.90;;;;;;4998381;28;20293;-75
2022/02/08 02:58:43;;;;;;;7.07;3.60;;;4.00;99.90;;;;;;4980133;28;20207;-79
2022/02/08 03:01:34;;;;;;;7.87;3.80;;;4.00;99.90;;;;;;4981399;28;20343;-78
2022/02/08 03:04:21;;;;;;;7.63;3.70;;;4.00;99.90;;;;;;4980661;28;20215;-76
2022/02/08 03:18:14;;;;;;;7.40;3.07;;;4.10;99.90;;;;;;4998011;28;20397;-76
2022/02/08 03:20:40;;;;;;;8.93;3.37;;;4.10;99.90;;;;;;4996152;28;20192;-76
2022/02/08 03:23:06;;;;;;;5.40;3.00;;;4.10;99.90;;;;;;4998108;28;20670;-80
2022/02/08 03:25:32;;;;;;;4.83;2.67;;;4.20;99.90;;;;;;4997591;28;20183;-76
2022/02/08 03:27:57;;;;;;;10.10;3.30;;;4.10;99.90;;;;;;4977126;28;20204;-80
2022/02/08 03:30:23;;;;;;;5.20;2.80;;;4.20;99.90;;;;;;4979296;28;20362;-78
2022/02/08 03:32:49;;;;;;;5.37;2.80;;;4.20;99.90;;;;;;4997749;28;20188;-78
2022/02/08 03:35:16;;;;;;;5.00;2.10;;;4.30;99.90;;;;;;4997260;28;20176;-79
2022/02/08 03:37:51;;;;;;;9.67;2.80;;;4.30;99.90;;;;;;4979859;28;20694;-78
2022/02/08 03:40:30;;;;;;;5.37;3.00;;;4.30;99.90;;;;;;4980208;28;20294;-80
2022/02/08 03:43:10;;;;;;;7.07;2.57;;;4.30;99.90;;;;;;4997429;28;20760;-76
2022/02/08 03:45:36;;;;;;;3.03;2.10;;;4.30;99.90;;;;;;4997119;28;20276;-78
2022/02/08 03:48:02;;;;;;;5.03;2.60;;;4.30;99.90;;;;;;4997472;28;20200;-76
2022/02/08 03:50:28;;;;;;;8.20;3.13;;;4.30;99.90;;;;;;4997271;28;20211;-80
2022/02/08 03:52:53;;;;;;;7.43;2.37;;;4.30;99.90;;;;;;4996828;28;20632;-79
2022/02/08 03:55:19;;;;;;;4.87;2.30;;;4.30;99.90;;;;;;4997201;28;20260;-79
2022/02/08 03:57:44;;;;;;;6.27;2.40;;;4.30;99.90;;;;;;4979345;28;20207;-79
2022/02/08 04:00:10;;;;;;;6.70;2.40;;;4.30;99.90;;;;;;4997448;28;20204;-79
2022/02/08 04:05:12;;;;;;;11.03;2.93;;;4.20;99.90;;;;;;4997362;28;20188;-77
2022/02/08 04:07:52;;;;;;;8.57;2.87;;;4.20;99.90;;;;;;4996792;28;20204;-79
2022/02/08 04:10:23;;;;;;;7.10;2.60;;;4.10;99.90;;;;;;4979824;28;20273;-79
2022/02/08 04:15:44;;;;;;;5.77;2.30;;;4.10;99.90;;;;;;4997024;28;20249;-79
2022/02/08 04:32:11;;;;;;;5.40;2.37;;;4.20;99.90;;;;;;4992944;28;20192;-77
2022/02/08 04:45:11;;;;;;;6.03;2.50;;;4.30;99.90;;;;;;4993954;28;20176;-77
2022/02/08 04:50:06;;;;;;;7.47;2.40;;;4.30;99.90;;;;;;4992328;28;20215;-79
2022/02/08 04:52:33;;;;;;;6.43;2.27;;;4.40;99.90;;;;;;4990388;28;20192;-81
2022/02/08 04:57:40;;;;;;;3.73;1.90;;;4.40;99.90;;;;;;4993053;28;20204;-79
2022/02/08 05:00:25;;;;;;;5.60;2.60;;;4.40;99.90;;;;;;4990006;28;20211;-81
2022/02/08 05:35:47;;;;;;;6.03;2.97;;;4.30;99.90;;;;;;4989039;28;20207;-81
2022/02/08 05:48:31;;;;;;;6.57;2.93;;;4.30;99.90;;;;;;4988601;28;20204;-76
2022/02/08 05:51:03;;;;;;;7.73;3.27;;;4.30;99.90;;;;;;4986430;28;20188;-79
2022/02/08 05:55:55;;;;;;;5.93;3.37;;;4.30;99.90;;;;;;4988835;28;20183;-80
2022/02/08 05:58:21;;;;;;;3.93;2.83;;;4.30;99.90;;;;;;4988308;28;20681;-77
2022/02/08 06:00:46;;;;;;;7.33;3.00;;;4.30;99.90;;;;;;4988132;28;20181;-81
2022/02/08 06:03:12;;;;;;;9.03;3.50;;;4.30;99.90;;;;;;4988032;28;20184;-80
2022/02/08 06:05:38;;;;;;;7.43;3.63;;;4.30;99.90;;;;;;4988468;28;20200;-80
2022/02/08 06:08:05;;;;;;;6.60;3.67;;;4.30;99.90;;;;;;4987738;28;20204;-80
2022/02/08 06:10:31;;;;;;;5.37;3.37;;;4.30;99.90;;;;;;4988462;28;20181;-77
2022/02/08 06:12:57;;;;;;;5.33;3.00;;;4.20;99.90;;;;;;4988523;28;20180;-81
2022/02/08 06:15:25;;;;;;;5.70;2.70;;;4.20;99.90;;;;;;4970639;28;20536;-81
2022/02/08 06:17:55;;;;;;;5.33;2.90;;;4.30;99.90;;;;;;4972893;28;20203;-76
2022/02/08 06:20:22;;;;;;;3.90;2.97;;;4.30;99.90;;;;;;4988420;28;20211;-78
2022/02/08 06:22:48;;;;;;;2.93;2.40;;;4.30;99.90;;;;;;4971335;28;20187;-77
2022/02/08 06:25:17;;;;;;;2.73;2.10;;;4.40;99.90;;;;;;4988130;28;20267;-78
2022/02/08 06:27:47;;;;;;;4.67;2.37;;;4.40;99.90;;;;;;4970401;28;20246;-76
2022/02/08 06:30:13;;;;;;;3.23;2.33;;;4.40;99.90;;;;;;4970582;28;20654;-77
2022/02/08 06:32:39;;;;;;;5.00;2.60;;;4.40;99.90;;;;;;4988315;28;20215;-79
2022/02/08 06:35:14;;;;;;;6.47;2.93;;;4.40;99.90;;;;;;4970782;28;20271;-80
2022/02/08 06:37:41;;;;;;;5.23;2.13;;;4.50;99.90;;;;;;4988510;28;20214;-76
2022/02/08 06:40:09;;;;;;;4.37;2.37;;;4.40;99.90;;;;;;4986384;28;20686;-79
2022/02/08 06:42:34;;;;;;;3.97;1.90;;;4.50;99.90;;;;;;5006649;28;20212;-79
2022/02/08 06:45:02;;;;;;;4.57;2.03;;;4.50;99.90;;;;;;4974330;28;20597;-78
2022/02/08 06:47:27;;;;;;;2.57;1.80;;;4.60;99.90;;;;;;4973002;28;20307;-81
2022/02/08 06:49:53;;;;;;;3.03;1.83;;;4.60;99.90;;;;;;4990975;28;20607;-79
2022/02/08 06:52:19;;;;;;;2.67;1.67;;;4.60;99.90;;;;;;4973738;28;20207;-80
2022/02/08 06:54:47;;;;;;;4.50;1.80;;;4.70;99.90;;;;;;4973370;28;20180;-76
2022/02/08 06:57:13;;;;;;;4.93;1.70;;;4.70;99.90;;;;;;4974408;28;20208;-80
2022/02/08 06:59:40;;;;;;;4.40;1.50;;;4.70;99.90;;;;;;4991674;28;20204;-80
2022/02/08 07:02:05;;;;;;;2.20;1.40;;;4.80;99.90;;;;;;4991553;28;20203;-75
2022/02/08 07:04:31;;;;;;;3.60;1.60;;;4.70;99.90;;;;;;4973335;28;20181;-79
2022/02/08 07:06:57;;;;;;;2.20;1.30;;;4.80;99.90;;;;;;4990756;28;20643;-78
2022/02/08 07:09:24;;;;;;;2.30;1.30;;;4.80;99.90;;;;;;4990844;28;20272;-79
2022/02/08 07:11:50;;;;;;;2.53;1.27;;;4.80;99.90;;;;;;4991870;28;20219;-76
2022/02/08 07:14:15;;;;;;;1.63;1.20;;;4.90;99.90;;;;;;4990825;28;20275;-77
2022/02/08 07:16:41;;;;;;;1.57;1.23;;;4.90;99.90;;;;;;4974026;28;20211;-80
2022/02/08 07:19:07;;;;;;;1.80;1.20;;;4.90;99.90;;;;;;4990912;28;20208;-74
2022/02/08 07:21:33;;;;;;;1.40;1.10;;;4.90;99.90;;;;;;4990971;28;20203;-80
2022/02/08 07:23:58;;;;;;;1.67;1.27;;;4.90;99.90;;;;;;4973783;28;20355;-80
2022/02/08 07:26:24;;;;;;;1.73;1.47;;;4.90;99.90;;;;;;4990785;28;20234;-78
2022/02/08 07:28:50;;;;;;;2.43;1.47;;;4.90;99.90;;;;;;4991098;28;20208;-81
2022/02/08 07:31:20;;;;;;;1.40;1.27;;;4.90;99.90;;;;;;4972836;28;20532;-78
2022/02/08 07:34:40;;;;;;;2.93;1.50;;;4.90;99.90;;;;;;4972223;28;20189;-75
2022/02/08 07:39:09;;;;;;;2.60;1.70;;;4.90;99.90;;;;;;4990620;28;20216;-77
2022/02/08 07:41:36;;;;;;;3.47;1.90;;;4.90;99.90;;;;;;4990463;28;20235;-80
2022/02/08 07:44:09;;;;;;;3.60;1.70;;;4.90;99.90;;;;;;4990819;28;20536;-79
2022/02/08 07:46:35;;;;;;;3.00;2.03;;;5.00;99.90;;;;;;4973069;28;20207;-76
2022/02/08 07:49:03;;;;;;;2.90;2.10;;;5.00;99.90;;;;;;4990299;28;20215;-79
2022/02/08 07:51:33;;;;;;;2.43;1.83;;;5.00;99.90;;;;;;4989619;28;20192;-80
2022/02/08 07:54:04;;;;;;;3.13;1.93;;;5.10;99.90;;;;;;4973146;28;20190;-77
2022/02/08 07:56:30;;;;;;;1.80;1.67;;;5.10;99.90;;;;;;4990693;28;20728;-78
2022/02/08 07:58:55;;;;;;;4.47;2.30;;;5.10;99.90;;;;;;4971708;28;20216;-79
2022/02/08 08:01:21;;;;;;;3.57;2.30;;;5.20;99.90;;;;;;4987756;28;20247;-78
2022/02/08 08:03:47;;;;;;;3.33;2.20;;;5.20;99.90;;;;;;4988781;28;20855;-77
2022/02/08 08:06:16;;;;;;;2.43;2.10;;;5.20;99.90;;;;;;4971251;28;20215;-80
2022/02/08 08:08:42;;;;;;;2.50;2.07;;;5.30;99.90;;;;;;4972123;28;20253;-79
2022/02/08 08:11:12;;;;;;;3.40;2.37;;;5.30;99.90;;;;;;4989249;28;20246;-78
2022/02/08 08:13:42;;;;;;;3.30;2.30;;;5.40;99.90;;;;;;4989117;28;20230;-77
2022/02/08 08:19:02;;;;;;;3.57;2.20;;;5.40;99.90;;;;;;4987218;28;20218;-78
2022/02/08 08:21:29;;;;;;;3.03;2.47;;;5.50;99.90;;;;;;4970978;28;20754;-79
2022/02/08 08:23:55;;;;;;;2.37;2.10;;;5.50;99.90;;;;;;4989596;28;20255;-79
2022/02/08 08:26:21;;;;;;;2.63;2.20;;;5.50;99.90;;;;;;4971250;28;20256;-80
2022/02/08 08:28:47;;;;;;;4.07;2.20;;;5.50;99.90;;;;;;4971558;28;20216;-75
2022/02/08 08:31:13;;;;;;;2.93;2.07;;;5.40;99.90;;;;;;4971235;28;20188;-77
2022/02/08 08:33:39;;;;;;;4.23;2.53;;;5.50;99.90;;;;;;4988618;28;20188;-78
2022/02/08 08:36:05;;;;;;;3.17;2.10;;;5.50;99.90;;;;;;4988713;28;20199;-80
2022/02/08 08:38:33;;;;;;;2.40;2.10;;;5.50;99.90;;;;;;4988028;28;20207;-79
2022/02/08 08:41:47;;;;;;;3.50;2.33;;;5.50;99.90;;;;;;4971239;28;20659;-79
2022/02/08 08:49:30;;;;;;;4.77;2.47;;;5.60;99.90;;;;;;4988759;28;20247;-78
2022/02/08 08:51:57;;;;;;;3.73;2.93;;;5.60;99.90;;;;;;4987418;28;20183;-75
2022/02/08 08:54:23;;;;;;;2.63;2.17;;;5.70;99.90;;;;;;4987631;28;20659;-77
2022/02/08 08:56:50;;;;;;;2.60;2.07;;;5.70;99.90;;;;;;4989068;28;20202;-79
2022/02/08 08:59:17;;;;;;;3.67;2.40;;;5.70;99.90;;;;;;4988017;28;20208;-80
2022/02/08 09:01:43;;;;;;;4.37;2.50;;;5.70;99.90;;;;;;4971211;28;20204;-77
2022/02/08 09:04:10;;;;;;;2.90;2.17;;;5.70;99.90;;;;;;4987274;28;20219;-77
2022/02/08 09:06:36;;;;;;;3.73;2.50;;;5.80;99.90;;;;;;4969673;28;20219;-76
2022/02/08 09:09:12;;;;;;;3.13;2.47;;;5.90;99.90;;;;;;4970598;28;20208;-80
2022/02/08 09:14:12;;;;;;;3.70;2.63;;;5.90;99.90;;;;;;4987562;28;20192;-75
2022/02/08 09:16:56;;;;;;;4.80;3.13;;;6.00;99.90;;;;;;4986154;28;20214;-79
2022/02/08 09:22:31;;;;;;;3.70;2.97;;;6.10;99.90;;;;;;4985388;28;20215;-80
2022/02/08 09:25:14;;;;;;;4.00;2.97;;;6.20;99.90;;;;;;4983307;28;20234;-79
2022/02/08 09:28:03;;;;;;;6.90;3.80;;;6.30;99.90;;;;;;4981754;28;20286;-76
2022/02/08 09:30:38;;;;;;;5.10;3.43;;;6.30;99.90;;;;;;4966032;28;21494;-75
2022/02/08 09:33:04;;;;;;;5.50;4.03;;;6.40;99.90;;;;;;4987160;28;20278;-79
2022/02/08 09:35:29;;;;;;;7.60;4.27;;;6.50;99.90;;;;;;4987644;28;20730;-81
2022/02/08 09:37:55;;;;;;;5.23;3.93;;;6.60;99.90;;;;;;4987153;28;20296;-79
2022/02/08 09:40:23;;;;;;;8.50;4.50;;;6.60;99.90;;;;;;4969401;28;20216;-77
2022/02/08 09:42:51;;;;;;;5.43;4.30;;;6.70;99.90;;;;;;4969078;28;20184;-79
2022/02/08 09:45:19;;;;;;;5.70;3.63;;;6.80;99.90;;;;;;4987494;28;20216;-80
2022/02/08 09:47:55;;;;;;;7.60;4.90;;;6.90;99.90;;;;;;4986958;28;20624;-79
2022/02/08 09:50:25;;;;;;;6.97;4.80;;;7.00;99.90;;;;;;4985543;28;20207;-75
2022/02/08 09:52:53;;;;;;;6.77;5.07;;;7.00;99.90;;;;;;4987540;28;20184;-75
2022/02/08 09:55:21;;;;;;;8.50;5.20;;;7.20;99.90;;;;;;4987195;28;20403;-78
2022/02/08 09:57:48;;;;;;;8.63;5.57;;;7.40;99.90;;;;;;4987892;28;20745;-81
2022/02/08 10:00:15;;;;;;;6.83;5.33;;;7.40;99.90;;;;;;4969951;28;20259;-80
2022/02/08 10:02:40;;;;;;;10.43;5.07;;;7.50;99.90;;;;;;4987827;28;20185;-81
2022/02/08 10:05:08;;;;;;;6.20;4.80;;;7.60;99.90;;;;;;4969457;28;20554;-79
2022/02/08 10:07:35;;;;;;;10.23;5.90;;;7.60;99.90;;;;;;4987087;28;20198;-76
2022/02/08 10:10:07;;;;;;;9.10;5.77;;;7.70;99.90;;;;;;4988371;28;20187;-81
2022/02/08 10:23:51;;;;;;;6.63;5.70;;;8.10;99.90;;;;;;4992585;28;20283;-78
2022/02/08 10:26:29;;;;;;;9.47;5.33;;;8.10;99.90;;;;;;4992966;28;20191;-80
2022/02/08 10:28:58;;;;;;;7.80;5.80;;;8.20;99.90;;;;;;4975714;28;20298;-78
2022/02/08 10:39:26;;;;;;;8.77;5.90;;;8.20;99.90;;;;;;4992633;28;20218;-78
2022/02/08 10:41:53;;;;;;;8.40;6.33;;;8.20;99.90;;;;;;4975215;28;20606;-78
2022/02/08 10:44:19;;;;;;;9.40;6.00;;;8.20;99.90;;;;;;4991898;28;20180;-77
2022/02/08 10:46:45;;;;;;;9.97;6.23;;;8.20;99.90;;;;;;4973708;28;20230;-78
2022/02/08 10:49:15;;;;;;;7.60;5.53;;;8.20;99.90;;;;;;4992062;28;20204;-78
2022/02/08 10:54:18;;;;;;;8.60;5.83;;;8.20;99.90;;;;;;4992040;28;20211;-77
2022/02/08 10:56:52;;;;;;;8.03;6.10;;;8.30;99.90;;;;;;4990080;28;20192;-77
2022/02/08 11:01:59;;;;;;;6.93;6.00;;;8.30;99.90;;;;;;4991044;28;21401;-80
2022/02/08 11:13:00;;;;;;;9.10;6.47;;;8.40;99.90;;;;;;4992454;28;20188;-81
2022/02/08 11:20:44;;;;;;;6.00;5.37;;;8.40;99.90;;;;;;4990387;28;20566;-76
2022/02/08 11:23:35;;;;;;;6.57;5.20;;;8.30;99.90;;;;;;4988383;28;20195;-76
2022/02/08 11:26:02;;;;;;;6.07;5.30;;;8.40;99.90;;;;;;4988117;28;20173;-79
2022/02/08 11:28:41;;;;;;;5.90;5.20;;;8.40;99.90;;;;;;4989021;28;20215;-80
2022/02/08 11:31:21;;;;;;;5.73;4.93;;;8.40;99.90;;;;;;4988660;28;20255;-79
2022/02/08 11:40:17;;;;;;;6.97;5.43;;;8.50;99.90;;;;;;4987900;28;20250;-81
2022/02/08 11:53:36;;;;;;;8.10;5.37;;;8.70;99.90;;;;;;4987937;28;20553;-76
2022/02/08 12:01:26;;;;;;;6.10;4.87;;;8.80;99.90;;;;;;4987118;28;20216;-79
2022/02/08 12:06:41;;;;;;;5.60;4.43;;;8.70;99.90;;;;;;4986849;28;20274;-78
2022/02/08 12:09:11;;;;;;;7.37;5.07;;;8.70;99.90;;;;;;4986393;28;20290;-78
2022/02/08 12:27:07;;;;;;;5.20;4.43;;;8.60;99.90;;;;;;4987578;28;20181;-79
2022/02/08 12:33:17;;;;;;;5.27;4.10;;;8.70;99.90;;;;;;4985595;28;20650;-78
2022/02/08 12:55:33;;;;;;;7.90;4.80;;;8.80;99.90;;;;;;4986510;28;20216;-79
2022/02/08 12:58:16;;;;;;;5.03;4.37;;;8.90;99.90;;;;;;4985751;28;20212;-77
2022/02/08 13:00:58;;;;;;;7.20;4.37;;;8.90;99.90;;;;;;4968336;28;20194;-77
2022/02/08 13:14:22;;;;;;;5.70;4.70;;;9.00;99.90;;;;;;4986813;28;20196;-81
2022/02/08 14:04:10;;;;;;;7.67;5.40;;;9.30;99.90;;;;;;4990549;28;20279;-79
2022/02/08 14:06:17;;;;;;;8.33;5.83;;;9.30;99.90;;;;;;4986294;28;20226;-77
2022/02/08 14:08:58;;;;;;;7.57;5.70;;;9.20;99.90;;;;;;4988114;28;20236;-76
2022/02/08 14:19:48;;;;;;;10.77;7.60;;;9.10;99.90;;;;;;4993909;28;20235;-76
2022/02/08 14:30:33;;;;;;;9.13;7.07;;;9.10;99.90;;;;;;4994205;28;20202;-78
2022/02/08 14:33:28;;;;;;;11.80;7.33;;;9.10;99.90;;;;;;4994525;28;20180;-80
2022/02/08 14:57:33;;;;;;;8.67;7.63;;;9.10;99.90;;;;;;4993726;28;20199;-81
2022/02/08 15:08:44;;;;;;;9.63;7.83;;;9.10;99.90;;;;;;4989473;28;20291;-80
2022/02/08 15:11:12;;;;;;;10.20;7.80;;;9.10;99.90;;;;;;4970805;28;20179;-81
2022/02/08 15:13:44;;;;;;;11.07;7.80;;;9.10;99.90;;;;;;4972729;28;20480;-78
2022/02/08 15:18:44;;;;;;;9.80;7.57;;;9.00;99.90;;;;;;4986341;28;20215;-79
2022/02/08 15:21:14;;;;;;;10.63;7.80;;;9.00;99.90;;;;;;4988494;28;20185;-77
2022/02/08 15:23:40;;;;;;;8.37;7.50;;;9.00;99.90;;;;;;4970840;28;20235;-77
2022/02/08 15:26:06;;;;;;;8.63;7.73;;;8.90;99.90;;;;;;4970603;28;20184;-76
2022/02/08 15:28:32;;;;;;;9.07;7.80;;;9.00;99.90;;;;;;4987601;28;20242;-78
2022/02/08 15:30:58;;;;;;;9.67;7.73;;;9.00;99.90;;;;;;4971112;28;20616;-77
2022/02/08 15:33:25;;;;;;;10.50;7.80;;;9.10;99.90;;;;;;4971126;28;20194;-79
2022/02/08 15:35:53;;;;;;;9.97;7.03;;;9.10;99.90;;;;;;4987556;28;20180;-78
2022/02/08 15:38:21;;;;;;;7.53;6.43;;;9.10;99.90;;;;;;4984743;28;20208;-77
2022/02/08 15:40:47;;;;;;;7.33;6.57;;;9.10;99.90;;;;;;4986862;28;20199;-76
2022/02/08 15:43:14;;;;;;;10.33;7.20;;;9.10;99.90;;;;;;4986401;28;20185;-79
2022/02/08 15:45:54;;;;;;;10.03;6.67;;;9.10;99.90;;;;;;4988712;28;20437;-80
2022/02/08 15:48:22;;;;;;;10.43;6.63;;;9.10;99.90;;;;;;4969220;28;20211;-75
2022/02/08 16:01:40;;;;;;;9.17;6.43;;;9.10;99.90;;;;;;5004007;28;20188;-78
2022/02/08 16:07:01;;;;;;;6.50;5.40;;;9.00;99.90;;;;;;4987416;28;20561;-83
2022/02/08 16:12:08;;;;;;;5.40;4.90;;;9.10;99.90;;;;;;4986554;28;20642;-78
2022/02/08 16:14:47;;;;;;;7.10;5.00;;;9.10;99.90;;;;;;4967071;28;20188;-78
2022/02/08 16:47:04;;;;;;;5.90;4.97;;;9.20;99.90;;;;;;5057867;28;20193;-73
2022/02/08 16:49:44;;;;;;;5.43;4.93;;;9.10;99.90;;;;;;5057335;28;20201;-73
2022/02/08 16:55:00;;;;;;;6.80;5.40;;;9.20;99.90;;;;;;5058373;28;20704;-73
2022/02/08 16:57:41;;;;;;;5.77;5.20;;;9.20;99.90;;;;;;5058076;28;20305;-73
2022/02/08 17:00:09;;;;;;;7.37;5.30;;;9.10;99.90;;;;;;5057211;28;20243;-73
2022/02/08 17:02:38;;;;;;;5.90;5.30;;;9.20;99.90;;;;;;5056639;28;20178;-72
2022/02/08 17:05:04;;;;;;;6.80;5.27;;;9.10;99.90;;;;;;5058238;28;20599;-73
2022/02/08 17:07:37;;;;;;;7.00;5.47;;;9.10;99.90;;;;;;5059262;28;20209;-73
2022/02/08 17:10:06;;;;;;;6.57;5.47;;;9.10;99.90;;;;;;5057747;28;20177;-72
2022/02/08 17:12:41;;;;;;;6.83;6.03;;;9.10;99.90;;;;;;5058387;28;20296;-71
2022/02/08 17:15:37;;;;;;;6.33;5.70;;;9.10;99.90;;;;;;5056542;28;20702;-73
2022/02/08 17:47:58;;;;;;;6.90;6.20;;;9.00;99.90;;;;;;5044281;28;20182;-72
2022/02/08 17:50:24;;;;;;;8.77;6.73;;;9.00;99.90;;;;;;5044215;28;20194;-73
2022/02/08 17:52:50;;;;;;;7.10;6.40;;;9.00;99.90;;;;;;5044424;28;20190;-72
2022/02/08 17:55:17;;;;;;;6.70;6.00;;;9.00;99.90;;;;;;5043274;28;20226;-72
2022/02/08 17:57:43;;;;;;;6.40;5.30;;;9.00;99.90;;;;;;5043478;28;20521;-74
2022/02/08 18:00:11;;;;;;;9.03;7.10;;;8.90;99.90;;;;;;5044059;28;20171;-72
2022/02/08 18:02:40;;;;;;;8.53;6.53;;;9.00;99.90;;;;;;5044227;28;20528;-72
2022/02/08 18:05:07;;;;;;;6.80;6.03;;;8.90;99.90;;;;;;5043451;28;20202;-73
2022/02/08 18:07:33;;;;;;;7.43;6.27;;;9.10;99.90;;;;;;5043475;28;20179;-74
2022/02/08 18:09:58;;;;;;;6.87;6.17;;;9.00;99.90;;;;;;5043698;28;20179;-72
2022/02/08 18:12:26;;;;;;;6.93;6.23;;;9.00;99.90;;;;;;5043732;28;20232;-74
2022/02/08 18:14:59;;;;;;;8.80;6.80;;;9.00;99.90;;;;;;5043295;28;20210;-74
2022/02/08 18:17:50;;;;;;;7.40;6.60;;;9.00;99.90;;;;;;5042172;28;20190;-72
2022/02/08 19:19:19;;;;;;;9.73;6.43;;;8.70;99.90;;;;;;5044513;28;20179;-73
2022/02/08 19:21:50;;;;;;;8.30;6.37;;;8.70;99.90;;;;;;5047484;28;20194;-71
2022/02/08 19:24:19;;;;;;;7.07;6.03;;;8.60;99.90;;;;;;5046157;28;20368;-72
2022/02/08 19:26:48;;;;;;;8.17;6.57;;;8.60;99.90;;;;;;5045471;28;20190;-71
2022/02/08 19:29:14;;;;;;;8.83;6.60;;;8.60;99.90;;;;;;5046621;28;20227;-71
2022/02/08 19:31:42;;;;;;;9.53;6.60;;;8.60;99.90;;;;;;5046723;28;20218;-71
2022/02/08 19:34:07;;;;;;;9.30;7.20;;;8.60;99.90;;;;;;5046597;28;20697;-72
2022/02/08 19:36:34;;;;;;;8.83;6.43;;;8.50;99.90;;;;;;5044897;28;20239;-72
2022/02/08 19:39:03;;;;;;;8.03;7.07;;;8.50;99.90;;;;;;5046734;28;20210;-71
2022/02/08 19:41:30;;;;;;;8.40;6.27;;;8.50;99.90;;;;;;5046931;28;20181;-71
2022/02/08 19:43:56;;;;;;;7.60;5.60;;;8.50;99.90;;;;;;5044489;28;20217;-74
2022/02/08 19:46:22;;;;;;;6.87;5.57;;;8.60;99.90;;;;;;5043592;28;20216;-71
2022/02/08 19:48:48;;;;;;;7.47;5.87;;;8.50;99.90;;;;;;5046661;28;20193;-75
2022/02/08 19:51:14;;;;;;;8.67;6.07;;;8.50;99.90;;;;;;5048233;28;20190;-71
2022/02/08 19:53:42;;;;;;;6.17;5.47;;;8.50;99.90;;;;;;5048254;28;20214;-73
2022/02/08 19:56:22;;;;;;;7.23;5.77;;;8.50;99.90;;;;;;5047699;28;20637;-71
2022/02/08 19:58:51;;;;;;;6.07;5.30;;;8.50;99.90;;;;;;5046823;28;20186;-71
2022/02/08 20:01:24;;;;;;;6.30;5.17;;;8.50;99.90;;;;;;5047939;28;20182;-71
2022/02/08 20:03:58;;;;;;;6.90;5.60;;;8.50;99.90;;;;;;5046096;28;20229;-72
2022/02/08 20:06:24;;;;;;;6.73;5.30;;;8.40;99.90;;;;;;5046234;28;20627;-72
2022/02/08 20:08:50;;;;;;;6.23;4.80;;;8.50;99.90;;;;;;5048478;28;20175;-72
2022/02/08 20:11:15;;;;;;;6.63;5.77;;;8.50;99.90;;;;;;5046285;28;20730;-71
2022/02/08 20:13:56;;;;;;;6.20;5.10;;;8.40;99.90;;;;;;5046033;28;20691;-71
2022/02/08 20:16:24;;;;;;;6.30;5.17;;;8.40;99.90;;;;;;5045246;28;20236;-71
2022/02/08 20:18:53;;;;;;;5.87;5.00;;;8.40;99.90;;;;;;5046125;28;20210;-70
2022/02/08 20:21:27;;;;;;;7.77;5.50;;;8.40;99.90;;;;;;5043638;28;20183;-71
2022/02/08 20:23:54;;;;;;;5.90;4.83;;;8.40;99.90;;;;;;5041870;28;20233;-71
2022/02/08 20:26:24;;;;;;;6.20;5.37;;;8.30;99.90;;;;;;5041452;28;20236;-70
2022/02/08 20:28:54;;;;;;;7.57;5.50;;;8.40;99.90;;;;;;5039909;28;20234;-73
2022/02/08 20:31:20;;;;;;;7.40;5.90;;;8.40;99.90;;;;;;5041726;28;20176;-71
2022/02/08 20:33:47;;;;;;;6.10;5.37;;;8.40;99.90;;;;;;5041364;28;20222;-71
2022/02/08 20:36:14;;;;;;;7.93;5.93;;;8.40;99.90;;;;;;5041768;28;20240;-71
2022/02/08 20:38:40;;;;;;;7.03;5.50;;;8.40;99.90;;;;;;5041829;28;20179;-72
2022/02/08 20:41:05;;;;;;;6.20;5.40;;;8.40;99.90;;;;;;5041911;28;20646;-70
2022/02/08 20:43:35;;;;;;;6.93;5.47;;;8.40;99.90;;;;;;5041278;28;20668;-71
2022/02/08 20:46:04;;;;;;;7.20;5.43;;;8.50;99.90;;;;;;5042075;28;20259;-71
2022/02/08 20:48:29;;;;;;;6.40;5.30;;;8.50;99.90;;;;;;5041528;28;20182;-73
2022/02/08 20:51:00;;;;;;;6.43;5.07;;;8.50;99.90;;;;;;5042157;28;20536;-71
2022/02/08 20:56:14;;;;;;;7.83;5.70;;;8.50;99.90;;;;;;5042092;28;20186;-72